Time;durP1;ratioP1;P1;durP2;ratioP2;P2;SDS_P1;SDS_P2;PMS_P1;PMS_P2;Temp;Humidity;BMP_temperature;BMP_pressure;BME280_temperature;BME280_humidity;BME280_pressure;Samples;Min_cycle;Max_cycle;Signal;HPM_P1;HPM_P2
2021/10/18 00:00:44;;;;;;;10.65;4.80;;;3.60;93.70;;;;;;2081165;28;20567;-65
2021/10/18 00:01:45;;;;;;;6.57;4.60;;;3.60;93.80;;;;;;2080426;28;20197;-66
2021/10/18 00:02:46;;;;;;;6.50;4.53;;;3.60;93.90;;;;;;2080570;28;20184;-66
2021/10/18 00:03:46;;;;;;;9.43;4.83;;;3.60;94.00;;;;;;2081380;28;20649;-66
2021/10/18 00:04:47;;;;;;;9.73;5.50;;;3.50;94.10;;;;;;2081286;28;20281;-66
2021/10/18 00:05:48;;;;;;;10.40;4.90;;;3.60;94.20;;;;;;2081259;28;20293;-66
2021/10/18 00:06:48;;;;;;;11.20;5.23;;;3.50;94.30;;;;;;2081233;28;20724;-66
2021/10/18 00:07:49;;;;;;;8.70;5.03;;;3.50;94.30;;;;;;2079587;28;20178;-66
2021/10/18 00:08:50;;;;;;;9.57;4.97;;;3.60;94.20;;;;;;2074102;28;20555;-66
2021/10/18 00:09:51;;;;;;;7.60;5.17;;;3.60;94.20;;;;;;2073057;28;20182;-66
2021/10/18 00:10:51;;;;;;;9.27;5.03;;;3.60;93.90;;;;;;2072998;28;20596;-66
2021/10/18 00:11:52;;;;;;;7.23;4.77;;;3.60;93.80;;;;;;2072982;28;20185;-65
2021/10/18 00:12:54;;;;;;;9.73;5.07;;;3.60;93.90;;;;;;2073027;28;20257;-66
2021/10/18 00:13:55;;;;;;;8.95;5.22;;;3.60;93.90;;;;;;2073062;28;20260;-66
2021/10/18 00:14:56;;;;;;;8.45;5.00;;;3.60;94.00;;;;;;2073070;28;20194;-65
2021/10/18 00:15:57;;;;;;;8.40;4.70;;;3.50;94.00;;;;;;2072913;28;20688;-66
2021/10/18 00:16:58;;;;;;;8.38;4.80;;;3.50;94.10;;;;;;2072372;28;20734;-66
2021/10/18 00:17:59;;;;;;;10.27;5.20;;;3.50;94.00;;;;;;2072640;28;20195;-65
2021/10/18 00:19:00;;;;;;;9.10;5.30;;;3.50;94.10;;;;;;2072959;28;20227;-65
2021/10/18 00:20:04;;;;;;;7.77;4.73;;;3.50;94.00;;;;;;2073150;28;20692;-66
2021/10/18 00:21:05;;;;;;;9.85;5.45;;;3.50;94.00;;;;;;2072905;28;20177;-66
2021/10/18 00:22:05;;;;;;;7.03;5.27;;;3.50;94.00;;;;;;2073185;28;20181;-66
2021/10/18 00:23:06;;;;;;;10.00;4.93;;;3.50;94.10;;;;;;2072431;28;20184;-65
2021/10/18 00:24:07;;;;;;;9.60;4.67;;;3.50;94.00;;;;;;2072417;28;20281;-66
2021/10/18 00:25:11;;;;;;;10.93;5.23;;;3.50;94.00;;;;;;2073028;28;20178;-66
2021/10/18 00:26:13;;;;;;;8.32;4.80;;;3.50;94.00;;;;;;2072994;28;20187;-65
2021/10/18 00:27:14;;;;;;;7.75;4.47;;;3.40;94.10;;;;;;2073040;28;20614;-66
2021/10/18 00:28:14;;;;;;;8.53;5.10;;;3.50;94.20;;;;;;2073075;28;20387;-65
2021/10/18 00:29:15;;;;;;;8.20;5.10;;;3.40;94.10;;;;;;2072931;28;20189;-66
2021/10/18 00:30:16;;;;;;;6.50;4.20;;;3.40;93.90;;;;;;2073061;28;20511;-66
2021/10/18 00:31:17;;;;;;;10.30;5.50;;;3.40;93.80;;;;;;2072667;28;20181;-65
2021/10/18 00:32:17;;;;;;;8.37;5.00;;;3.40;94.00;;;;;;2072443;28;20185;-66
2021/10/18 00:33:18;;;;;;;7.80;5.50;;;3.30;94.40;;;;;;2072346;28;20219;-66
2021/10/18 00:34:19;;;;;;;6.93;4.63;;;3.30;94.50;;;;;;2073009;28;20261;-65
2021/10/18 00:35:19;;;;;;;7.37;4.93;;;3.30;94.80;;;;;;2072748;28;20193;-66
2021/10/18 00:36:20;;;;;;;9.40;4.60;;;3.20;94.80;;;;;;2072394;28;20755;-66
2021/10/18 00:37:21;;;;;;;6.93;4.43;;;3.20;95.00;;;;;;2072412;28;20272;-66
2021/10/18 00:38:22;;;;;;;9.43;5.10;;;3.20;95.00;;;;;;2072953;28;20244;-66
2021/10/18 00:39:22;;;;;;;10.93;5.33;;;3.20;95.00;;;;;;2072383;28;20186;-65
2021/10/18 00:40:23;;;;;;;9.13;5.47;;;3.20;94.90;;;;;;2072292;28;20265;-66
2021/10/18 00:41:24;;;;;;;7.40;4.57;;;3.20;94.70;;;;;;2072160;28;20726;-66
2021/10/18 00:42:25;;;;;;;7.77;4.83;;;3.20;94.80;;;;;;2072350;28;20281;-66
2021/10/18 00:43:25;;;;;;;9.53;4.77;;;3.30;94.70;;;;;;2072998;28;20264;-66
2021/10/18 00:44:26;;;;;;;6.80;4.67;;;3.20;94.70;;;;;;2072934;28;20191;-66
2021/10/18 00:45:27;;;;;;;7.77;5.23;;;3.20;94.70;;;;;;2072814;28;20190;-66
2021/10/18 00:46:28;;;;;;;5.17;4.10;;;3.30;94.70;;;;;;2072950;28;20191;-66
2021/10/18 00:47:28;;;;;;;6.80;4.93;;;3.30;94.70;;;;;;2073039;28;20198;-66
2021/10/18 00:48:29;;;;;;;6.67;4.70;;;3.30;94.50;;;;;;2072908;28;20190;-66
2021/10/18 00:49:30;;;;;;;9.03;5.30;;;3.30;94.40;;;;;;2072884;28;20560;-66
2021/10/18 00:50:31;;;;;;;12.70;5.50;;;3.30;94.40;;;;;;2072805;28;20280;-66
2021/10/18 00:51:32;;;;;;;7.80;5.07;;;3.30;94.20;;;;;;2072008;28;20615;-66
2021/10/18 00:52:35;;;;;;;6.45;4.63;;;3.20;94.50;;;;;;2072359;28;20214;-66
2021/10/18 00:53:35;;;;;;;10.10;4.80;;;3.20;94.80;;;;;;2072914;28;20330;-66
2021/10/18 00:54:36;;;;;;;7.90;5.23;;;3.20;95.30;;;;;;2072830;28;20186;-66
2021/10/18 00:55:37;;;;;;;9.70;5.13;;;3.20;95.80;;;;;;2072852;28;20329;-66
2021/10/18 00:56:38;;;;;;;7.63;5.33;;;3.10;95.80;;;;;;2071991;28;20317;-66
2021/10/18 00:57:39;;;;;;;9.80;4.93;;;3.10;95.80;;;;;;2064331;28;20178;-66
2021/10/18 00:58:42;;;;;;;6.25;4.63;;;3.10;95.80;;;;;;2072181;28;20197;-66
2021/10/18 00:59:44;;;;;;;8.30;4.90;;;3.10;95.70;;;;;;2072336;28;20187;-66
2021/10/18 01:00:45;;;;;;;7.45;5.03;;;3.10;95.60;;;;;;2072082;28;20257;-66
2021/10/18 01:01:47;;;;;;;7.40;5.00;;;3.20;95.50;;;;;;2063987;28;20179;-66
2021/10/18 01:02:48;;;;;;;8.23;5.15;;;3.20;95.30;;;;;;2072162;28;20232;-66
2021/10/18 01:03:49;;;;;;;7.47;4.37;;;3.20;95.20;;;;;;2072864;28;20653;-66
2021/10/18 01:04:50;;;;;;;9.57;4.20;;;3.20;95.20;;;;;;2072218;28;20182;-66
2021/10/18 01:05:52;;;;;;;7.38;4.43;;;3.20;95.20;;;;;;2064143;28;20610;-66
2021/10/18 01:06:54;;;;;;;5.15;3.85;;;3.10;95.20;;;;;;2072139;28;20182;-66
2021/10/18 01:07:55;;;;;;;6.78;4.32;;;3.10;95.40;;;;;;2072573;28;20227;-66
2021/10/18 01:08:56;;;;;;;6.70;4.00;;;3.00;95.40;;;;;;2065675;28;20261;-66
2021/10/18 01:09:57;;;;;;;6.10;4.83;;;3.00;95.40;;;;;;2073870;28;20429;-66
2021/10/18 01:10:58;;;;;;;6.97;4.20;;;3.10;95.20;;;;;;2065751;28;20583;-66
2021/10/18 01:11:59;;;;;;;7.50;4.60;;;3.10;95.20;;;;;;2073704;28;20265;-65
2021/10/18 01:13:00;;;;;;;7.10;5.00;;;3.10;95.40;;;;;;2074315;28;20178;-65
2021/10/18 01:14:00;;;;;;;8.03;4.70;;;3.00;95.80;;;;;;2074449;28;20528;-66
2021/10/18 01:15:02;;;;;;;7.57;4.90;;;3.00;96.00;;;;;;2073773;28;20208;-65
2021/10/18 01:16:06;;;;;;;6.43;5.22;;;2.90;96.10;;;;;;2065750;28;20217;-65
2021/10/18 01:17:06;;;;;;;8.13;5.05;;;3.00;96.30;;;;;;2073848;28;20178;-65
2021/10/18 01:18:07;;;;;;;7.90;4.40;;;3.00;96.40;;;;;;2074339;28;20765;-66
2021/10/18 01:19:18;;;;;;;7.20;4.67;;;3.00;96.30;;;;;;2074318;28;20185;-65
2021/10/18 01:20:37;;;;;;;5.70;4.35;;;3.00;96.10;;;;;;2074418;28;20232;-66
2021/10/18 01:21:39;;;;;;;5.72;4.05;;;3.00;95.80;;;;;;2074110;28;20186;-65
2021/10/18 01:22:40;;;;;;;8.25;4.00;;;3.00;95.70;;;;;;2073780;28;20189;-66
2021/10/18 01:23:41;;;;;;;5.67;4.50;;;3.00;95.60;;;;;;2073492;28;20182;-66
2021/10/18 01:24:42;;;;;;;5.37;4.40;;;3.00;95.60;;;;;;2074337;28;20593;-65
2021/10/18 01:25:42;;;;;;;7.13;4.30;;;3.00;95.60;;;;;;2074192;28;20220;-66
2021/10/18 01:26:43;;;;;;;7.37;5.07;;;3.00;95.60;;;;;;2074323;28;20572;-66
2021/10/18 01:27:44;;;;;;;7.03;5.00;;;2.90;95.70;;;;;;2073614;28;20645;-65
2021/10/18 01:28:44;;;;;;;7.53;5.10;;;2.90;96.00;;;;;;2073641;28;20219;-65
2021/10/18 01:29:45;;;;;;;7.73;4.80;;;2.90;96.10;;;;;;2074201;28;20185;-66
2021/10/18 01:30:46;;;;;;;7.33;4.60;;;2.90;96.20;;;;;;2073687;28;20553;-65
2021/10/18 01:31:47;;;;;;;6.32;4.18;;;2.90;95.80;;;;;;2073535;28;20185;-65
2021/10/18 01:32:48;;;;;;;7.47;4.37;;;2.80;95.70;;;;;;2074289;28;20645;-66
2021/10/18 01:33:48;;;;;;;7.10;4.40;;;2.80;95.70;;;;;;2074247;28;20177;-65
2021/10/18 01:34:49;;;;;;;6.93;4.83;;;2.80;95.60;;;;;;2074201;28;20197;-66
2021/10/18 01:35:50;;;;;;;7.47;4.70;;;2.80;95.60;;;;;;2074154;28;20652;-65
2021/10/18 01:36:51;;;;;;;6.67;4.80;;;2.80;95.70;;;;;;2073607;28;20202;-65
2021/10/18 01:37:52;;;;;;;6.93;4.90;;;2.70;95.80;;;;;;2073675;28;20248;-65
2021/10/18 01:38:53;;;;;;;9.63;5.55;;;2.70;95.80;;;;;;2074332;28;20265;-66
2021/10/18 01:39:53;;;;;;;8.17;5.27;;;2.80;95.90;;;;;;2074213;28;20181;-66
2021/10/18 01:40:54;;;;;;;6.63;4.90;;;2.70;96.00;;;;;;2074367;28;20228;-65
2021/10/18 01:41:55;;;;;;;8.70;5.33;;;2.70;96.00;;;;;;2074054;28;20183;-65
2021/10/18 01:42:57;;;;;;;9.02;5.05;;;2.80;95.90;;;;;;2073578;28;20178;-65
2021/10/18 01:43:58;;;;;;;8.55;5.53;;;2.80;95.80;;;;;;2073507;28;20217;-66
2021/10/18 01:44:58;;;;;;;7.00;4.90;;;2.80;95.70;;;;;;2077633;28;20200;-65
2021/10/18 01:45:59;;;;;;;6.83;5.40;;;2.70;95.60;;;;;;2082346;28;20207;-66
2021/10/18 01:47:00;;;;;;;8.33;4.77;;;2.70;96.00;;;;;;2082325;28;20174;-66
2021/10/18 01:48:00;;;;;;;8.57;5.17;;;2.70;95.60;;;;;;2082354;28;20275;-66
2021/10/18 01:49:01;;;;;;;11.27;6.03;;;2.70;95.60;;;;;;2081793;28;20268;-65
2021/10/18 01:50:12;;;;;;;9.00;5.30;;;2.70;95.70;;;;;;2081640;28;20180;-65
2021/10/18 01:51:12;;;;;;;7.60;4.70;;;2.70;95.70;;;;;;2081539;28;20196;-65
2021/10/18 01:52:13;;;;;;;7.83;4.77;;;2.60;95.70;;;;;;2081742;28;20577;-66
2021/10/18 01:53:14;;;;;;;8.30;5.00;;;2.60;95.80;;;;;;2082332;28;20477;-66
2021/10/18 01:54:14;;;;;;;9.63;5.30;;;2.60;95.90;;;;;;2082334;28;20181;-66
2021/10/18 01:55:16;;;;;;;7.30;5.43;;;2.60;95.80;;;;;;2082161;28;20181;-66
2021/10/18 01:56:17;;;;;;;5.97;4.53;;;2.50;95.90;;;;;;2082147;28;20174;-66
2021/10/18 01:57:18;;;;;;;6.30;4.70;;;2.50;95.90;;;;;;2082252;28;20185;-65
2021/10/18 01:58:18;;;;;;;8.93;4.88;;;2.50;96.00;;;;;;2082309;28;20187;-65
2021/10/18 01:59:19;;;;;;;6.27;4.07;;;2.50;96.10;;;;;;2082159;28;20264;-65
2021/10/18 02:00:21;;;;;;;5.93;4.47;;;2.50;96.20;;;;;;2081709;28;20679;-66
2021/10/18 02:01:22;;;;;;;7.40;4.60;;;2.40;96.30;;;;;;2081247;28;20180;-65
2021/10/18 02:02:22;;;;;;;7.03;4.60;;;2.50;96.30;;;;;;2082359;28;20183;-65
2021/10/18 02:03:23;;;;;;;5.93;4.57;;;2.50;96.20;;;;;;2082148;28;20601;-66
2021/10/18 02:04:24;;;;;;;5.60;4.03;;;2.40;96.20;;;;;;2077541;28;20182;-65
2021/10/18 02:05:24;;;;;;;5.73;4.30;;;2.50;96.20;;;;;;2073922;28;20182;-66
2021/10/18 02:06:25;;;;;;;6.03;4.17;;;2.40;96.50;;;;;;2074001;28;20182;-65
2021/10/18 02:07:26;;;;;;;7.47;4.97;;;2.40;96.00;;;;;;2074008;28;20173;-65
2021/10/18 02:08:26;;;;;;;7.67;4.90;;;2.40;96.00;;;;;;2074009;28;20221;-66
2021/10/18 02:09:27;;;;;;;6.07;4.50;;;2.40;96.10;;;;;;2073951;28;20231;-65
2021/10/18 02:10:28;;;;;;;8.40;5.07;;;2.30;96.10;;;;;;2073940;28;20185;-66
2021/10/18 02:11:28;;;;;;;8.10;4.70;;;2.30;96.40;;;;;;2073767;28;20248;-66
2021/10/18 02:12:29;;;;;;;10.07;4.73;;;2.30;96.60;;;;;;2074014;28;20178;-65
2021/10/18 02:13:30;;;;;;;9.70;4.63;;;2.30;96.60;;;;;;2073951;28;20185;-66
2021/10/18 02:14:31;;;;;;;7.38;5.57;;;2.30;96.50;;;;;;2074001;28;20185;-64
2021/10/18 02:15:32;;;;;;;6.93;4.63;;;2.30;96.40;;;;;;2073914;28;20206;-65
2021/10/18 02:16:32;;;;;;;7.23;5.00;;;2.30;96.40;;;;;;2073897;28;20205;-66
2021/10/18 02:17:33;;;;;;;7.40;4.83;;;2.30;96.50;;;;;;2073836;28;20228;-65
2021/10/18 02:18:34;;;;;;;7.40;4.53;;;2.30;96.60;;;;;;2074014;28;20192;-66
2021/10/18 02:19:34;;;;;;;7.43;4.60;;;2.30;96.60;;;;;;2073257;28;20210;-65
2021/10/18 02:20:35;;;;;;;5.90;4.13;;;2.30;96.50;;;;;;2073845;28;20174;-65
2021/10/18 02:21:36;;;;;;;8.27;4.53;;;2.30;96.50;;;;;;2073640;28;20181;-66
2021/10/18 02:22:38;;;;;;;7.13;4.53;;;2.30;96.60;;;;;;2073851;28;20181;-66
2021/10/18 02:23:39;;;;;;;6.13;4.28;;;2.30;96.70;;;;;;2073222;28;20181;-65
2021/10/18 02:24:39;;;;;;;7.17;4.67;;;2.30;96.70;;;;;;2073306;28;20232;-65
2021/10/18 02:25:40;;;;;;;6.47;4.50;;;2.30;96.60;;;;;;2073838;28;20587;-65
2021/10/18 02:26:41;;;;;;;6.70;4.60;;;2.30;96.60;;;;;;2073892;28;20178;-65
2021/10/18 02:27:42;;;;;;;6.40;4.83;;;2.30;96.50;;;;;;2073866;28;20205;-65
2021/10/18 02:28:43;;;;;;;7.60;5.13;;;2.30;96.30;;;;;;2073853;28;20482;-66
2021/10/18 02:29:43;;;;;;;6.93;4.77;;;2.30;95.90;;;;;;2073887;28;20185;-65
2021/10/18 02:30:44;;;;;;;6.97;4.77;;;2.30;95.70;;;;;;2073785;28;20193;-66
2021/10/18 02:31:45;;;;;;;6.60;4.77;;;2.30;95.80;;;;;;2073653;28;20492;-65
2021/10/18 02:32:46;;;;;;;8.37;5.30;;;2.20;95.90;;;;;;2073800;28;20185;-65
2021/10/18 02:33:46;;;;;;;7.93;4.70;;;2.20;96.00;;;;;;2073808;28;20208;-65
2021/10/18 02:34:47;;;;;;;7.43;4.63;;;2.20;96.20;;;;;;2073778;28;20200;-65
2021/10/18 02:35:48;;;;;;;6.03;4.33;;;2.20;96.30;;;;;;2073723;28;20221;-65
2021/10/18 02:36:49;;;;;;;8.20;4.40;;;2.20;96.20;;;;;;2073331;28;20206;-65
2021/10/18 02:37:50;;;;;;;6.40;4.20;;;2.10;96.40;;;;;;2081905;28;20179;-66
2021/10/18 02:38:50;;;;;;;6.23;3.80;;;2.10;96.40;;;;;;2081148;28;20220;-66
2021/10/18 02:39:51;;;;;;;6.60;4.43;;;2.10;96.60;;;;;;2081416;28;20470;-66
2021/10/18 02:40:52;;;;;;;5.90;4.13;;;2.10;96.90;;;;;;2081934;28;20193;-65
2021/10/18 02:41:52;;;;;;;6.60;4.60;;;2.10;97.00;;;;;;2081802;28;20593;-65
2021/10/18 02:42:53;;;;;;;6.00;4.30;;;2.10;97.00;;;;;;2081831;28;20173;-65
2021/10/18 02:43:54;;;;;;;5.93;4.30;;;2.10;96.90;;;;;;2081789;28;20173;-65
2021/10/18 02:44:54;;;;;;;5.80;4.27;;;2.10;96.60;;;;;;2081766;28;20394;-66
2021/10/18 02:45:55;;;;;;;5.33;3.43;;;2.10;96.50;;;;;;2081912;28;20199;-66
2021/10/18 02:46:56;;;;;;;5.23;3.60;;;2.10;96.60;;;;;;2081839;28;20177;-65
2021/10/18 02:47:57;;;;;;;6.40;3.57;;;2.10;96.50;;;;;;2082030;28;20173;-66
2021/10/18 02:48:57;;;;;;;5.50;3.50;;;2.00;96.60;;;;;;2081273;28;20184;-65
2021/10/18 02:49:58;;;;;;;4.67;2.80;;;2.00;96.60;;;;;;2081117;28;20269;-65
2021/10/18 02:50:59;;;;;;;4.00;2.80;;;2.00;96.80;;;;;;2081742;28;20177;-66
2021/10/18 02:52:00;;;;;;;8.65;3.80;;;2.00;97.00;;;;;;2081791;28;20169;-66
2021/10/18 02:53:00;;;;;;;5.13;3.80;;;2.00;97.00;;;;;;2081881;28;20185;-65
2021/10/18 02:54:04;;;;;;;5.23;3.33;;;2.00;97.00;;;;;;2082066;28;20184;-64
2021/10/18 02:55:06;;;;;;;7.22;3.65;;;2.00;96.90;;;;;;2081764;28;20181;-65
2021/10/18 02:56:07;;;;;;;5.95;3.38;;;2.00;96.90;;;;;;2081797;28;20213;-65
2021/10/18 02:57:08;;;;;;;5.45;3.20;;;2.00;96.70;;;;;;2081938;28;20183;-65
2021/10/18 02:58:08;;;;;;;4.37;3.30;;;2.00;96.70;;;;;;2081822;28;20173;-65
2021/10/18 02:59:09;;;;;;;4.97;3.57;;;2.00;96.70;;;;;;2081062;28;20196;-65
2021/10/18 03:00:10;;;;;;;4.13;3.00;;;1.90;96.70;;;;;;2081217;28;20255;-65
2021/10/18 03:01:11;;;;;;;4.95;2.58;;;2.00;96.50;;;;;;2081459;28;20193;-65
2021/10/18 03:02:12;;;;;;;4.90;3.13;;;1.90;96.40;;;;;;2081865;28;20243;-66
2021/10/18 03:03:12;;;;;;;4.40;2.60;;;2.00;96.30;;;;;;2081753;28;20197;-65
2021/10/18 03:04:13;;;;;;;4.67;3.17;;;1.90;96.20;;;;;;2081764;28;20177;-65
2021/10/18 03:05:14;;;;;;;4.70;3.20;;;1.90;96.30;;;;;;2081173;28;20203;-65
2021/10/18 03:06:14;;;;;;;4.10;3.03;;;1.90;96.40;;;;;;2081054;28;20173;-65
2021/10/18 03:07:15;;;;;;;6.00;2.77;;;1.90;96.70;;;;;;2081727;28;20640;-65
2021/10/18 03:08:16;;;;;;;4.03;2.90;;;1.80;96.80;;;;;;2081605;28;20181;-66
2021/10/18 03:09:17;;;;;;;5.70;3.27;;;1.90;96.80;;;;;;2081803;28;20185;-65
2021/10/18 03:10:19;;;;;;;5.37;3.27;;;1.90;96.80;;;;;;2081686;28;20173;-65
2021/10/18 03:11:20;;;;;;;3.72;2.78;;;1.80;96.90;;;;;;2080706;28;20984;-65
2021/10/18 03:12:21;;;;;;;4.67;2.83;;;1.80;96.80;;;;;;2081014;28;20209;-65
2021/10/18 03:13:21;;;;;;;3.60;2.83;;;1.80;96.60;;;;;;2081678;28;20169;-66
2021/10/18 03:14:22;;;;;;;3.17;2.50;;;1.80;96.50;;;;;;2081683;28;20169;-65
2021/10/18 03:15:23;;;;;;;4.83;2.70;;;1.70;96.40;;;;;;2081652;28;20192;-64
2021/10/18 03:16:24;;;;;;;4.77;3.20;;;1.70;96.40;;;;;;2081604;28;20201;-65
2021/10/18 03:17:25;;;;;;;3.43;2.60;;;1.70;96.40;;;;;;2081290;28;20223;-65
2021/10/18 03:18:26;;;;;;;4.97;2.92;;;1.70;96.20;;;;;;2081074;28;20618;-66
2021/10/18 03:19:27;;;;;;;5.60;3.23;;;1.70;96.40;;;;;;2081712;28;20185;-65
2021/10/18 03:20:28;;;;;;;3.67;2.63;;;1.70;96.70;;;;;;2081590;28;20188;-66
2021/10/18 03:21:28;;;;;;;4.63;3.20;;;1.70;96.70;;;;;;2081685;28;20185;-65
2021/10/18 03:22:29;;;;;;;4.97;2.77;;;1.60;96.70;;;;;;2081735;28;20644;-65
2021/10/18 03:23:30;;;;;;;4.13;2.77;;;1.60;96.70;;;;;;2081721;28;20595;-65
2021/10/18 03:24:30;;;;;;;4.17;2.93;;;1.60;96.60;;;;;;2081612;28;20542;-65
2021/10/18 03:25:34;;;;;;;4.43;2.80;;;1.60;96.50;;;;;;2081550;28;20203;-65
2021/10/18 03:26:35;;;;;;;4.03;2.78;;;1.60;96.40;;;;;;2081587;28;20192;-65
2021/10/18 03:27:37;;;;;;;4.07;2.83;;;1.70;96.50;;;;;;2081503;28;20195;-65
2021/10/18 03:28:37;;;;;;;3.53;2.80;;;1.60;97.10;;;;;;2081498;28;20423;-65
2021/10/18 03:29:38;;;;;;;3.97;2.60;;;1.70;96.60;;;;;;2081564;28;20185;-65
2021/10/18 03:30:39;;;;;;;3.50;2.50;;;1.60;96.80;;;;;;2081625;28;20179;-65
2021/10/18 03:31:39;;;;;;;5.17;2.47;;;1.60;96.90;;;;;;2081352;28;20217;-65
2021/10/18 03:32:40;;;;;;;3.97;2.70;;;1.70;97.10;;;;;;2081552;28;20188;-65
2021/10/18 03:33:41;;;;;;;3.50;2.70;;;1.70;97.20;;;;;;2081727;28;20762;-65
2021/10/18 03:34:42;;;;;;;4.72;2.72;;;1.70;97.10;;;;;;2081513;28;20645;-65
2021/10/18 03:35:43;;;;;;;5.30;3.17;;;1.70;97.00;;;;;;2081464;28;20201;-65
2021/10/18 03:36:43;;;;;;;4.38;2.67;;;1.70;96.90;;;;;;2081338;28;20208;-65
2021/10/18 03:37:44;;;;;;;4.50;2.63;;;1.70;96.90;;;;;;2080826;28;20197;-65
2021/10/18 03:38:45;;;;;;;8.17;3.07;;;1.70;96.90;;;;;;2080966;28;20628;-65
2021/10/18 03:39:46;;;;;;;3.93;2.40;;;1.70;96.90;;;;;;2081545;28;20205;-65
2021/10/18 03:40:46;;;;;;;4.10;2.50;;;1.70;97.50;;;;;;2081422;28;20680;-65
2021/10/18 03:41:47;;;;;;;3.80;2.60;;;1.70;97.00;;;;;;2081239;28;20678;-65
2021/10/18 03:42:48;;;;;;;3.93;2.63;;;1.60;97.50;;;;;;2081406;28;20665;-64
2021/10/18 03:43:48;;;;;;;2.87;2.30;;;1.70;97.00;;;;;;2081391;28;20169;-64
2021/10/18 03:44:50;;;;;;;3.47;2.43;;;1.60;97.00;;;;;;2081406;28;20316;-64
2021/10/18 03:45:50;;;;;;;2.95;2.30;;;1.60;96.90;;;;;;2081205;28;20683;-64
2021/10/18 03:46:51;;;;;;;4.77;2.43;;;1.60;96.90;;;;;;2081417;28;20217;-65
2021/10/18 03:47:52;;;;;;;3.33;2.70;;;1.60;97.00;;;;;;2080759;28;20200;-64
2021/10/18 03:48:52;;;;;;;3.73;2.97;;;1.60;97.00;;;;;;2080840;28;20184;-65
2021/10/18 03:49:53;;;;;;;8.90;5.73;;;1.60;97.00;;;;;;2081540;28;20221;-64
2021/10/18 03:50:54;;;;;;;26.30;16.67;;;1.60;97.20;;;;;;2081367;28;20189;-65
2021/10/18 03:51:55;;;;;;;30.30;21.30;;;1.60;97.50;;;;;;2081252;28;20173;-65
2021/10/18 03:52:56;;;;;;;18.30;11.48;;;1.60;97.60;;;;;;2081490;28;20181;-65
2021/10/18 03:53:56;;;;;;;15.00;10.17;;;1.60;97.50;;;;;;2081125;28;20662;-65
2021/10/18 03:54:57;;;;;;;12.40;7.90;;;1.60;97.50;;;;;;2081507;28;20217;-66
2021/10/18 03:55:58;;;;;;;10.43;6.87;;;1.60;97.50;;;;;;2081321;28;20274;-66
2021/10/18 03:56:58;;;;;;;11.57;6.13;;;1.60;97.50;;;;;;2081499;28;20584;-65
2021/10/18 03:57:59;;;;;;;8.30;5.37;;;1.60;97.40;;;;;;2081567;28;20173;-65
2021/10/18 03:59:00;;;;;;;7.57;5.00;;;1.60;97.30;;;;;;2081365;28;20173;-65
2021/10/18 04:00:02;;;;;;;5.67;3.53;;;1.60;97.10;;;;;;2081315;28;20175;-64
2021/10/18 04:01:08;;;;;;;5.20;3.40;;;1.70;97.00;;;;;;2081202;28;20196;-64
2021/10/18 04:02:09;;;;;;;5.03;3.30;;;1.70;96.90;;;;;;2080707;28;20174;-64
2021/10/18 04:03:10;;;;;;;4.35;3.08;;;1.60;96.90;;;;;;2080811;28;20173;-65
2021/10/18 04:04:11;;;;;;;5.03;3.10;;;1.60;96.90;;;;;;2081243;28;20191;-65
2021/10/18 04:05:11;;;;;;;4.87;3.37;;;1.60;97.00;;;;;;2081154;28;20219;-65
2021/10/18 04:06:12;;;;;;;4.13;2.87;;;1.60;97.10;;;;;;2081194;28;20188;-64
2021/10/18 04:07:13;;;;;;;3.67;2.63;;;1.60;97.10;;;;;;2081499;28;20181;-64
2021/10/18 04:08:14;;;;;;;3.67;2.70;;;1.60;97.10;;;;;;2081281;28;20548;-63
2021/10/18 04:09:15;;;;;;;5.00;2.50;;;1.60;97.20;;;;;;2081350;28;20326;-64
2021/10/18 04:10:19;;;;;;;2.70;2.40;;;1.60;96.90;;;;;;2081156;28;20184;-66
2021/10/18 04:11:20;;;;;;;3.33;2.60;;;1.60;96.80;;;;;;2081013;28;20173;-65
2021/10/18 04:12:21;;;;;;;3.30;2.45;;;1.60;96.40;;;;;;2080747;28;20177;-65
2021/10/18 04:13:22;;;;;;;3.13;1.93;;;1.60;96.60;;;;;;2080627;28;20215;-65
2021/10/18 04:14:22;;;;;;;3.17;2.20;;;1.60;96.70;;;;;;2079610;28;20874;-64
2021/10/18 04:15:23;;;;;;;4.33;2.50;;;1.60;96.50;;;;;;2074246;28;20208;-64
2021/10/18 04:16:24;;;;;;;2.67;2.10;;;1.60;96.50;;;;;;2073009;28;20217;-65
2021/10/18 04:17:24;;;;;;;3.20;2.30;;;1.60;96.50;;;;;;2073094;28;20208;-64
2021/10/18 04:18:25;;;;;;;2.60;2.20;;;1.60;96.60;;;;;;2073115;28;20181;-65
2021/10/18 04:19:26;;;;;;;3.43;2.40;;;1.60;96.60;;;;;;2072599;28;20703;-63
2021/10/18 04:20:27;;;;;;;3.07;2.23;;;1.50;96.50;;;;;;2072312;28;20560;-64
2021/10/18 04:21:28;;;;;;;3.63;2.37;;;1.50;96.70;;;;;;2072819;28;20660;-64
2021/10/18 04:22:28;;;;;;;2.78;2.17;;;1.50;96.80;;;;;;2073046;28;20186;-64
2021/10/18 04:23:29;;;;;;;3.17;2.00;;;1.50;96.80;;;;;;2073063;28;20181;-65
2021/10/18 04:24:30;;;;;;;2.90;1.90;;;1.50;96.80;;;;;;2073000;28;20512;-65
2021/10/18 04:25:31;;;;;;;3.20;2.30;;;1.50;97.20;;;;;;2072998;28;20201;-64
2021/10/18 04:26:31;;;;;;;2.92;2.20;;;1.50;96.60;;;;;;2072991;28;20184;-65
2021/10/18 04:27:32;;;;;;;3.37;2.07;;;1.50;96.60;;;;;;2073033;28;20209;-64
2021/10/18 04:28:33;;;;;;;5.30;2.30;;;1.50;96.70;;;;;;2073020;28;20562;-65
2021/10/18 04:29:34;;;;;;;2.73;2.23;;;1.40;96.70;;;;;;2072939;28;20187;-65
2021/10/18 04:30:34;;;;;;;3.07;2.00;;;1.40;96.80;;;;;;2073149;28;20195;-64
2021/10/18 04:31:35;;;;;;;3.53;2.37;;;1.40;96.80;;;;;;2072670;28;20271;-65
2021/10/18 04:32:36;;;;;;;3.80;2.37;;;1.40;96.80;;;;;;2073209;28;20264;-65
2021/10/18 04:33:36;;;;;;;3.50;2.40;;;1.40;97.00;;;;;;2073038;28;20184;-65
2021/10/18 04:34:37;;;;;;;3.07;2.30;;;1.40;97.20;;;;;;2073044;28;20588;-65
2021/10/18 04:35:38;;;;;;;3.23;2.27;;;1.30;97.30;;;;;;2072904;28;20202;-65
2021/10/18 04:36:39;;;;;;;3.65;2.33;;;1.30;97.30;;;;;;2072852;28;20212;-64
2021/10/18 04:37:40;;;;;;;2.77;2.07;;;1.30;97.30;;;;;;2072968;28;20216;-65
2021/10/18 04:38:40;;;;;;;2.67;2.20;;;1.30;97.20;;;;;;2072996;28;20178;-64
2021/10/18 04:39:41;;;;;;;3.13;2.30;;;1.30;97.20;;;;;;2072910;28;20181;-64
2021/10/18 04:40:41;;;;;;;4.03;2.57;;;1.30;97.30;;;;;;2072960;28;20169;-64
2021/10/18 04:41:42;;;;;;;3.30;2.13;;;1.30;97.30;;;;;;2072720;28;20181;-65
2021/10/18 04:42:43;;;;;;;2.53;2.13;;;1.30;97.20;;;;;;2072972;28;20178;-64
2021/10/18 04:43:44;;;;;;;2.77;2.47;;;1.40;97.20;;;;;;2074602;28;20198;-65
2021/10/18 04:44:44;;;;;;;3.43;2.47;;;1.40;97.20;;;;;;2074648;28;20188;-64
2021/10/18 04:45:45;;;;;;;4.20;2.83;;;1.40;97.20;;;;;;2074502;28;20197;-65
2021/10/18 04:46:46;;;;;;;3.63;2.60;;;1.40;97.30;;;;;;2074693;28;20181;-65
2021/10/18 04:47:50;;;;;;;3.00;2.37;;;1.40;97.40;;;;;;2074534;28;20261;-65
2021/10/18 04:48:51;;;;;;;3.70;2.63;;;1.40;97.40;;;;;;2074025;28;20173;-65
2021/10/18 04:49:51;;;;;;;5.03;2.63;;;1.40;97.20;;;;;;2074112;28;20626;-65
2021/10/18 04:50:52;;;;;;;4.40;2.80;;;1.40;97.20;;;;;;2074560;28;20275;-65
2021/10/18 04:51:53;;;;;;;4.23;2.60;;;1.40;97.20;;;;;;2074381;28;20185;-65
2021/10/18 04:52:53;;;;;;;2.90;2.33;;;1.30;97.20;;;;;;2074570;28;20182;-64
2021/10/18 04:53:54;;;;;;;5.90;2.37;;;1.30;97.20;;;;;;2074523;28;20205;-64
2021/10/18 04:54:55;;;;;;;3.93;2.67;;;1.30;97.40;;;;;;2074812;28;20307;-64
2021/10/18 04:55:55;;;;;;;4.57;2.80;;;1.40;97.40;;;;;;2074454;28;20206;-65
2021/10/18 04:56:56;;;;;;;3.37;2.50;;;1.30;97.40;;;;;;2074440;28;20241;-64
2021/10/18 04:58:00;;;;;;;2.33;1.90;;;1.30;97.40;;;;;;2074450;28;20256;-64
2021/10/18 04:59:01;;;;;;;2.78;2.25;;;1.30;97.30;;;;;;2074573;28;20185;-64
2021/10/18 05:00:03;;;;;;;3.90;2.60;;;1.30;97.30;;;;;;2074517;28;20683;-64
2021/10/18 05:01:04;;;;;;;4.45;1.95;;;1.30;97.20;;;;;;2074397;28;20174;-64
2021/10/18 05:02:05;;;;;;;3.77;2.50;;;1.30;97.20;;;;;;2074426;28;20637;-64
2021/10/18 05:03:05;;;;;;;2.73;2.10;;;1.30;97.20;;;;;;2074588;28;20262;-64
2021/10/18 05:04:06;;;;;;;2.70;2.33;;;1.30;97.20;;;;;;2074395;28;20715;-65
2021/10/18 05:05:07;;;;;;;2.77;2.27;;;1.30;97.20;;;;;;2074475;28;20178;-65
2021/10/18 05:06:08;;;;;;;2.85;2.40;;;1.30;97.10;;;;;;2074214;28;20210;-65
2021/10/18 05:07:08;;;;;;;4.40;2.40;;;1.30;97.00;;;;;;2073802;28;20185;-64
2021/10/18 05:08:13;;;;;;;4.03;2.10;;;1.30;97.00;;;;;;2073814;28;20170;-63
2021/10/18 05:09:13;;;;;;;3.53;2.22;;;1.20;97.00;;;;;;2074329;28;20259;-63
2021/10/18 05:10:14;;;;;;;3.83;2.30;;;1.30;97.10;;;;;;2074609;28;20240;-65
2021/10/18 05:11:15;;;;;;;2.58;1.83;;;1.30;97.20;;;;;;2074215;28;20840;-65
2021/10/18 05:12:16;;;;;;;4.07;2.40;;;1.20;97.10;;;;;;2074539;28;20200;-64
2021/10/18 05:13:16;;;;;;;3.70;2.47;;;1.30;97.00;;;;;;2074410;28;20185;-64
2021/10/18 05:14:17;;;;;;;3.33;2.40;;;1.30;97.00;;;;;;2074392;28;20230;-64
2021/10/18 05:15:18;;;;;;;3.13;2.20;;;1.30;96.90;;;;;;2074339;28;20173;-64
2021/10/18 05:16:18;;;;;;;4.60;2.63;;;1.30;96.90;;;;;;2074432;28;20182;-64
2021/10/18 05:17:19;;;;;;;2.63;2.23;;;1.30;96.90;;;;;;2074330;28;20178;-64
2021/10/18 05:18:20;;;;;;;4.00;2.30;;;1.20;97.00;;;;;;2074471;28;20272;-65
2021/10/18 05:19:22;;;;;;;4.03;2.53;;;1.20;97.10;;;;;;2074252;28;20212;-65
2021/10/18 05:20:23;;;;;;;3.75;2.67;;;1.20;96.90;;;;;;2073734;28;20637;-65
2021/10/18 05:21:24;;;;;;;4.90;2.90;;;1.20;96.70;;;;;;2065330;28;20193;-65